San Bernardino International Airport San Bernardino US
ICAO: KSBD
IATA: SBD
Category: Medium
Scheduled Services: No

Elevation: 1159 ft
TransAlt. 18000 ft.

Airport Communications:
SOCAL APP/DEP:119.65
TANKER BASE:123.975
CTAF/UNICOM:122.975

KSBD Zoom In..

If you have problems with the map follow the link
https://www.worldairports.se/pages/airport.php?
ICAO=KSBD

Runways:

(A) RW 06 length 10000 ft width 200 ft
ILS 109.30 / hdg 57

(B) RW 24 length 10000 ft width 200 ft
---- / hdg 237

Location; KSBD
Day. 12 / Time. 11.40 Zulu
* Altimeter: 30.19
* Temperature: 10° c. 50°f.
* Wind from: 000° Speed 00 kn.
Dewpoint: 05° c.
Visibility: 10 Statute Miles.
Clouds: Clear (automated report).

KSBD 121140Z AUTO 00000KT 10SM CLR 10/05 A3019 RMK AO2 T01000049


Wind - Calm.

 
 
jpsmedia worldairports.se 2019   terms of use